sensor_id;sensor_type;location;lat;lon;timestamp;P1;durP1;ratioP1;P2;durP2;ratioP2
60098;SDS011;62818;49.394;8.686;2023-12-22T00:00:22;1.60;;;1.50;;
60098;SDS011;62818;49.394;8.686;2023-12-22T00:01:22;2.37;;;2.00;;
60098;SDS011;62818;49.394;8.686;2023-12-22T00:02:23;3.60;;;1.83;;
60098;SDS011;62818;49.394;8.686;2023-12-22T00:03:25;2.17;;;1.90;;
60098;SDS011;62818;49.394;8.686;2023-12-22T00:04:26;1.77;;;1.67;;
60098;SDS011;62818;49.394;8.686;2023-12-22T00:05:26;3.50;;;1.60;;
60098;SDS011;62818;49.394;8.686;2023-12-22T00:06:27;1.70;;;1.60;;
60098;SDS011;62818;49.394;8.686;2023-12-22T00:07:27;2.33;;;1.80;;
60098;SDS011;62818;49.394;8.686;2023-12-22T00:08:28;2.00;;;1.60;;
60098;SDS011;62818;49.394;8.686;2023-12-22T00:09:29;1.70;;;1.60;;
60098;SDS011;62818;49.394;8.686;2023-12-22T00:10:29;3.40;;;1.80;;
60098;SDS011;62818;49.394;8.686;2023-12-22T00:11:29;2.07;;;1.90;;
60098;SDS011;62818;49.394;8.686;2023-12-22T00:12:30;2.40;;;2.20;;
60098;SDS011;62818;49.394;8.686;2023-12-22T00:13:30;3.20;;;2.00;;
60098;SDS011;62818;49.394;8.686;2023-12-22T00:14:33;3.10;;;1.90;;
60098;SDS011;62818;49.394;8.686;2023-12-22T00:15:33;1.77;;;1.67;;
60098;SDS011;62818;49.394;8.686;2023-12-22T00:16:36;2.10;;;1.47;;
60098;SDS011;62818;49.394;8.686;2023-12-22T00:17:37;1.65;;;1.55;;
60098;SDS011;62818;49.394;8.686;2023-12-22T00:18:38;1.97;;;1.87;;
60098;SDS011;62818;49.394;8.686;2023-12-22T00:19:38;2.53;;;1.80;;
60098;SDS011;62818;49.394;8.686;2023-12-22T00:20:39;1.90;;;1.80;;
60098;SDS011;62818;49.394;8.686;2023-12-22T00:21:39;1.77;;;1.60;;
60098;SDS011;62818;49.394;8.686;2023-12-22T00:22:40;1.80;;;1.70;;
60098;SDS011;62818;49.394;8.686;2023-12-22T00:23:40;1.67;;;1.57;;
60098;SDS011;62818;49.394;8.686;2023-12-22T00:24:41;1.63;;;1.53;;
60098;SDS011;62818;49.394;8.686;2023-12-22T00:25:41;3.90;;;1.70;;
60098;SDS011;62818;49.394;8.686;2023-12-22T00:26:42;1.63;;;1.53;;
60098;SDS011;62818;49.394;8.686;2023-12-22T00:27:42;1.40;;;1.30;;
60098;SDS011;62818;49.394;8.686;2023-12-22T00:28:43;5.83;;;1.73;;
60098;SDS011;62818;49.394;8.686;2023-12-22T00:29:44;1.70;;;1.60;;
60098;SDS011;62818;49.394;8.686;2023-12-22T00:30:45;1.80;;;1.70;;
60098;SDS011;62818;49.394;8.686;2023-12-22T00:31:45;1.50;;;1.50;;
60098;SDS011;62818;49.394;8.686;2023-12-22T00:32:46;1.60;;;1.50;;
60098;SDS011;62818;49.394;8.686;2023-12-22T00:33:46;1.50;;;1.40;;
60098;SDS011;62818;49.394;8.686;2023-12-22T00:34:47;1.95;;;1.85;;
60098;SDS011;62818;49.394;8.686;2023-12-22T00:35:47;1.70;;;1.60;;
60098;SDS011;62818;49.394;8.686;2023-12-22T00:36:48;2.50;;;1.90;;
60098;SDS011;62818;49.394;8.686;2023-12-22T00:37:48;3.00;;;1.90;;
60098;SDS011;62818;49.394;8.686;2023-12-22T00:38:49;5.10;;;1.60;;
60098;SDS011;62818;49.394;8.686;2023-12-22T00:39:50;1.80;;;1.70;;
60098;SDS011;62818;49.394;8.686;2023-12-22T00:40:51;1.43;;;1.33;;
60098;SDS011;62818;49.394;8.686;2023-12-22T00:41:51;1.30;;;1.30;;
60098;SDS011;62818;49.394;8.686;2023-12-22T00:42:52;1.90;;;1.67;;
60098;SDS011;62818;49.394;8.686;2023-12-22T00:43:52;1.43;;;1.43;;
60098;SDS011;62818;49.394;8.686;2023-12-22T00:44:53;1.57;;;1.47;;
60098;SDS011;62818;49.394;8.686;2023-12-22T00:45:53;1.67;;;1.50;;
60098;SDS011;62818;49.394;8.686;2023-12-22T00:46:56;1.95;;;1.77;;
60098;SDS011;62818;49.394;8.686;2023-12-22T00:47:56;1.93;;;1.80;;
60098;SDS011;62818;49.394;8.686;2023-12-22T00:48:57;2.10;;;1.50;;
60098;SDS011;62818;49.394;8.686;2023-12-22T00:49:57;2.73;;;1.80;;
60098;SDS011;62818;49.394;8.686;2023-12-22T00:50:58;2.10;;;1.90;;
60098;SDS011;62818;49.394;8.686;2023-12-22T00:51:59;1.70;;;1.60;;
60098;SDS011;62818;49.394;8.686;2023-12-22T00:52:59;2.10;;;1.53;;
60098;SDS011;62818;49.394;8.686;2023-12-22T00:53:59;1.70;;;1.60;;
60098;SDS011;62818;49.394;8.686;2023-12-22T00:55:00;1.70;;;1.60;;
60098;SDS011;62818;49.394;8.686;2023-12-22T00:56:00;2.53;;;1.90;;
60098;SDS011;62818;49.394;8.686;2023-12-22T00:57:02;1.70;;;1.60;;
60098;SDS011;62818;49.394;8.686;2023-12-22T00:58:03;1.70;;;1.60;;
60098;SDS011;62818;49.394;8.686;2023-12-22T00:59:04;2.60;;;1.57;;
60098;SDS011;62818;49.394;8.686;2023-12-22T01:00:05;1.40;;;1.40;;
60098;SDS011;62818;49.394;8.686;2023-12-22T01:01:09;1.60;;;1.50;;
60098;SDS011;62818;49.394;8.686;2023-12-22T01:02:09;1.60;;;1.50;;
60098;SDS011;62818;49.394;8.686;2023-12-22T01:03:10;1.43;;;1.40;;
60098;SDS011;62818;49.394;8.686;2023-12-22T01:04:11;1.50;;;1.40;;
60098;SDS011;62818;49.394;8.686;2023-12-22T01:05:12;1.60;;;1.50;;
60098;SDS011;62818;49.394;8.686;2023-12-22T01:06:13;1.93;;;1.57;;
60098;SDS011;62818;49.394;8.686;2023-12-22T01:08:15;1.40;;;1.40;;
60098;SDS011;62818;49.394;8.686;2023-12-22T01:09:16;2.93;;;1.50;;
60098;SDS011;62818;49.394;8.686;2023-12-22T01:10:16;1.60;;;1.50;;
60098;SDS011;62818;49.394;8.686;2023-12-22T01:11:17;1.50;;;1.40;;
60098;SDS011;62818;49.394;8.686;2023-12-22T01:12:17;2.63;;;1.48;;
60098;SDS011;62818;49.394;8.686;2023-12-22T01:13:18;1.80;;;1.67;;
60098;SDS011;62818;49.394;8.686;2023-12-22T01:14:18;1.93;;;1.53;;
60098;SDS011;62818;49.394;8.686;2023-12-22T01:15:19;2.70;;;1.90;;
60098;SDS011;62818;49.394;8.686;2023-12-22T01:16:19;1.30;;;1.30;;
60098;SDS011;62818;49.394;8.686;2023-12-22T01:17:22;1.40;;;1.40;;
60098;SDS011;62818;49.394;8.686;2023-12-22T01:18:23;1.60;;;1.50;;
60098;SDS011;62818;49.394;8.686;2023-12-22T01:19:25;1.58;;;1.50;;
60098;SDS011;62818;49.394;8.686;2023-12-22T01:20:25;1.50;;;1.40;;
60098;SDS011;62818;49.394;8.686;2023-12-22T01:21:26;1.60;;;1.50;;
60098;SDS011;62818;49.394;8.686;2023-12-22T01:22:26;1.60;;;1.50;;
60098;SDS011;62818;49.394;8.686;2023-12-22T01:23:27;1.70;;;1.60;;
60098;SDS011;62818;49.394;8.686;2023-12-22T01:24:27;1.70;;;1.60;;
60098;SDS011;62818;49.394;8.686;2023-12-22T01:25:28;1.70;;;1.60;;
60098;SDS011;62818;49.394;8.686;2023-12-22T01:26:28;1.93;;;1.73;;
60098;SDS011;62818;49.394;8.686;2023-12-22T01:27:29;1.80;;;1.70;;
60098;SDS011;62818;49.394;8.686;2023-12-22T01:28:29;1.70;;;1.60;;
60098;SDS011;62818;49.394;8.686;2023-12-22T01:29:30;2.70;;;1.50;;
60098;SDS011;62818;49.394;8.686;2023-12-22T01:30:30;1.80;;;1.70;;
60098;SDS011;62818;49.394;8.686;2023-12-22T01:31:31;1.70;;;1.60;;
60098;SDS011;62818;49.394;8.686;2023-12-22T01:32:31;1.57;;;1.47;;
60098;SDS011;62818;49.394;8.686;2023-12-22T01:33:35;1.63;;;1.52;;
60098;SDS011;62818;49.394;8.686;2023-12-22T01:34:35;1.73;;;1.63;;
60098;SDS011;62818;49.394;8.686;2023-12-22T01:35:36;1.63;;;1.53;;
60098;SDS011;62818;49.394;8.686;2023-12-22T01:36:37;1.70;;;1.60;;
60098;SDS011;62818;49.394;8.686;2023-12-22T01:37:37;1.40;;;1.40;;
60098;SDS011;62818;49.394;8.686;2023-12-22T01:38:38;1.67;;;1.58;;
60098;SDS011;62818;49.394;8.686;2023-12-22T01:39:38;3.33;;;1.63;;
60098;SDS011;62818;49.394;8.686;2023-12-22T01:40:39;1.60;;;1.50;;
60098;SDS011;62818;49.394;8.686;2023-12-22T01:41:39;2.50;;;1.50;;
60098;SDS011;62818;49.394;8.686;2023-12-22T01:42:40;1.70;;;1.60;;
60098;SDS011;62818;49.394;8.686;2023-12-22T01:43:40;1.40;;;1.40;;
60098;SDS011;62818;49.394;8.686;2023-12-22T01:44:41;2.57;;;1.60;;
60098;SDS011;62818;49.394;8.686;2023-12-22T01:45:42;2.27;;;1.70;;
60098;SDS011;62818;49.394;8.686;2023-12-22T01:46:44;1.50;;;1.40;;
60098;SDS011;62818;49.394;8.686;2023-12-22T01:47:45;2.30;;;1.67;;
60098;SDS011;62818;49.394;8.686;2023-12-22T01:48:47;1.75;;;1.65;;
60098;SDS011;62818;49.394;8.686;2023-12-22T01:49:48;2.10;;;1.90;;
60098;SDS011;62818;49.394;8.686;2023-12-22T01:50:49;2.97;;;1.60;;
60098;SDS011;62818;49.394;8.686;2023-12-22T01:51:52;2.30;;;1.80;;
60098;SDS011;62818;49.394;8.686;2023-12-22T01:52:53;1.90;;;1.60;;
60098;SDS011;62818;49.394;8.686;2023-12-22T01:53:54;4.43;;;1.80;;
60098;SDS011;62818;49.394;8.686;2023-12-22T01:54:55;1.93;;;1.70;;
60098;SDS011;62818;49.394;8.686;2023-12-22T01:55:55;3.47;;;1.80;;
60098;SDS011;62818;49.394;8.686;2023-12-22T01:56:59;4.53;;;1.65;;
60098;SDS011;62818;49.394;8.686;2023-12-22T01:58:00;2.50;;;1.95;;
60098;SDS011;62818;49.394;8.686;2023-12-22T01:59:01;3.97;;;1.92;;
60098;SDS011;62818;49.394;8.686;2023-12-22T02:00:02;3.90;;;1.90;;
60098;SDS011;62818;49.394;8.686;2023-12-22T02:01:03;1.63;;;1.40;;
60098;SDS011;62818;49.394;8.686;2023-12-22T02:02:04;1.73;;;1.63;;
60098;SDS011;62818;49.394;8.686;2023-12-22T02:03:05;2.13;;;1.93;;
60098;SDS011;62818;49.394;8.686;2023-12-22T02:04:06;3.42;;;1.65;;
60098;SDS011;62818;49.394;8.686;2023-12-22T02:05:07;3.00;;;1.90;;
60098;SDS011;62818;49.394;8.686;2023-12-22T02:06:09;2.58;;;1.80;;
60098;SDS011;62818;49.394;8.686;2023-12-22T02:07:10;3.25;;;1.60;;
60098;SDS011;62818;49.394;8.686;2023-12-22T02:08:12;4.85;;;1.90;;
60098;SDS011;62818;49.394;8.686;2023-12-22T02:09:12;2.93;;;1.73;;
60098;SDS011;62818;49.394;8.686;2023-12-22T02:10:13;3.13;;;1.70;;
60098;SDS011;62818;49.394;8.686;2023-12-22T02:11:14;2.00;;;1.80;;
60098;SDS011;62818;49.394;8.686;2023-12-22T02:13:15;3.15;;;1.88;;
60098;SDS011;62818;49.394;8.686;2023-12-22T02:14:16;2.00;;;1.83;;
60098;SDS011;62818;49.394;8.686;2023-12-22T02:15:16;3.60;;;1.57;;
60098;SDS011;62818;49.394;8.686;2023-12-22T02:16:22;2.45;;;1.80;;
60098;SDS011;62818;49.394;8.686;2023-12-22T02:17:53;3.35;;;1.77;;
60098;SDS011;62818;49.394;8.686;2023-12-22T02:19:04;2.75;;;1.92;;
60098;SDS011;62818;49.394;8.686;2023-12-22T02:20:38;3.72;;;2.00;;
60098;SDS011;62818;49.394;8.686;2023-12-22T02:21:58;3.83;;;2.03;;
60098;SDS011;62818;49.394;8.686;2023-12-22T02:23:00;3.90;;;1.90;;
60098;SDS011;62818;49.394;8.686;2023-12-22T02:24:00;4.43;;;1.63;;
60098;SDS011;62818;49.394;8.686;2023-12-22T02:25:01;3.37;;;2.20;;
60098;SDS011;62818;49.394;8.686;2023-12-22T02:26:22;3.07;;;1.90;;
60098;SDS011;62818;49.394;8.686;2023-12-22T02:27:49;2.97;;;2.05;;
60098;SDS011;62818;49.394;8.686;2023-12-22T02:28:57;4.25;;;1.83;;
60098;SDS011;62818;49.394;8.686;2023-12-22T02:30:03;3.28;;;1.75;;
60098;SDS011;62818;49.394;8.686;2023-12-22T02:31:18;2.60;;;1.88;;
60098;SDS011;62818;49.394;8.686;2023-12-22T02:32:37;2.33;;;1.80;;
60098;SDS011;62818;49.394;8.686;2023-12-22T02:33:41;1.92;;;1.73;;
60098;SDS011;62818;49.394;8.686;2023-12-22T02:34:45;6.63;;;2.15;;
60098;SDS011;62818;49.394;8.686;2023-12-22T02:35:52;4.53;;;2.08;;
60098;SDS011;62818;49.394;8.686;2023-12-22T02:37:05;5.90;;;2.22;;
60098;SDS011;62818;49.394;8.686;2023-12-22T02:38:09;7.20;;;2.20;;
60098;SDS011;62818;49.394;8.686;2023-12-22T02:39:12;8.23;;;2.20;;
60098;SDS011;62818;49.394;8.686;2023-12-22T02:40:14;6.43;;;2.20;;
60098;SDS011;62818;49.394;8.686;2023-12-22T02:41:15;4.78;;;2.30;;
60098;SDS011;62818;49.394;8.686;2023-12-22T02:42:17;6.28;;;2.30;;
60098;SDS011;62818;49.394;8.686;2023-12-22T02:43:20;6.82;;;2.20;;
60098;SDS011;62818;49.394;8.686;2023-12-22T02:44:21;4.18;;;2.30;;
60098;SDS011;62818;49.394;8.686;2023-12-22T02:45:22;10.00;;;2.38;;
60098;SDS011;62818;49.394;8.686;2023-12-22T02:46:22;5.33;;;2.73;;
60098;SDS011;62818;49.394;8.686;2023-12-22T02:47:23;5.93;;;2.88;;
60098;SDS011;62818;49.394;8.686;2023-12-22T02:48:24;6.20;;;2.67;;
60098;SDS011;62818;49.394;8.686;2023-12-22T02:49:24;8.53;;;2.73;;
60098;SDS011;62818;49.394;8.686;2023-12-22T02:50:25;3.50;;;2.17;;
60098;SDS011;62818;49.394;8.686;2023-12-22T02:51:26;7.30;;;2.97;;
60098;SDS011;62818;49.394;8.686;2023-12-22T02:52:27;6.03;;;2.53;;
60098;SDS011;62818;49.394;8.686;2023-12-22T02:53:27;4.17;;;2.47;;
60098;SDS011;62818;49.394;8.686;2023-12-22T02:54:27;9.80;;;3.17;;
60098;SDS011;62818;49.394;8.686;2023-12-22T02:55:30;4.10;;;2.40;;
60098;SDS011;62818;49.394;8.686;2023-12-22T02:56:31;6.17;;;2.70;;
60098;SDS011;62818;49.394;8.686;2023-12-22T02:57:31;4.30;;;2.77;;
60098;SDS011;62818;49.394;8.686;2023-12-22T02:58:32;7.90;;;2.40;;
60098;SDS011;62818;49.394;8.686;2023-12-22T02:59:33;5.27;;;2.43;;
60098;SDS011;62818;49.394;8.686;2023-12-22T03:00:33;4.83;;;2.07;;
60098;SDS011;62818;49.394;8.686;2023-12-22T03:01:33;5.57;;;2.60;;
60098;SDS011;62818;49.394;8.686;2023-12-22T03:02:34;7.47;;;2.30;;
60098;SDS011;62818;49.394;8.686;2023-12-22T03:03:34;3.07;;;1.93;;
60098;SDS011;62818;49.394;8.686;2023-12-22T03:04:35;4.67;;;2.07;;
60098;SDS011;62818;49.394;8.686;2023-12-22T03:05:35;6.93;;;2.60;;
60098;SDS011;62818;49.394;8.686;2023-12-22T03:06:36;6.00;;;2.23;;
60098;SDS011;62818;49.394;8.686;2023-12-22T03:07:36;6.70;;;2.77;;
60098;SDS011;62818;49.394;8.686;2023-12-22T03:08:37;5.97;;;2.70;;
60098;SDS011;62818;49.394;8.686;2023-12-22T03:09:37;9.87;;;2.80;;
60098;SDS011;62818;49.394;8.686;2023-12-22T03:10:38;7.57;;;2.60;;
60098;SDS011;62818;49.394;8.686;2023-12-22T03:11:39;5.27;;;2.17;;
60098;SDS011;62818;49.394;8.686;2023-12-22T03:12:39;5.27;;;2.33;;
60098;SDS011;62818;49.394;8.686;2023-12-22T03:13:40;6.97;;;2.50;;
60098;SDS011;62818;49.394;8.686;2023-12-22T03:14:40;5.40;;;2.33;;
60098;SDS011;62818;49.394;8.686;2023-12-22T03:15:41;4.57;;;2.37;;
60098;SDS011;62818;49.394;8.686;2023-12-22T03:16:41;5.43;;;2.30;;
60098;SDS011;62818;49.394;8.686;2023-12-22T03:17:42;7.10;;;2.53;;
60098;SDS011;62818;49.394;8.686;2023-12-22T03:18:43;10.17;;;3.13;;
60098;SDS011;62818;49.394;8.686;2023-12-22T03:19:43;6.43;;;2.50;;
60098;SDS011;62818;49.394;8.686;2023-12-22T03:20:44;4.47;;;2.63;;
60098;SDS011;62818;49.394;8.686;2023-12-22T03:21:44;5.53;;;2.80;;
60098;SDS011;62818;49.394;8.686;2023-12-22T03:22:45;9.13;;;2.50;;
60098;SDS011;62818;49.394;8.686;2023-12-22T03:23:45;5.20;;;2.17;;
60098;SDS011;62818;49.394;8.686;2023-12-22T03:24:46;6.27;;;1.93;;
60098;SDS011;62818;49.394;8.686;2023-12-22T03:25:46;5.53;;;2.53;;
60098;SDS011;62818;49.394;8.686;2023-12-22T03:26:47;6.30;;;2.40;;
60098;SDS011;62818;49.394;8.686;2023-12-22T03:27:50;5.55;;;2.13;;
60098;SDS011;62818;49.394;8.686;2023-12-22T03:28:51;7.68;;;2.78;;
60098;SDS011;62818;49.394;8.686;2023-12-22T03:29:52;5.20;;;2.53;;
60098;SDS011;62818;49.394;8.686;2023-12-22T03:30:52;10.17;;;2.70;;
60098;SDS011;62818;49.394;8.686;2023-12-22T03:31:53;9.83;;;2.73;;
60098;SDS011;62818;49.394;8.686;2023-12-22T03:32:53;5.07;;;2.57;;
60098;SDS011;62818;49.394;8.686;2023-12-22T03:33:54;5.80;;;2.30;;
60098;SDS011;62818;49.394;8.686;2023-12-22T03:34:54;7.57;;;2.47;;
60098;SDS011;62818;49.394;8.686;2023-12-22T03:35:54;5.27;;;2.30;;
60098;SDS011;62818;49.394;8.686;2023-12-22T03:36:55;5.90;;;2.50;;
60098;SDS011;62818;49.394;8.686;2023-12-22T03:37:55;5.60;;;2.03;;
60098;SDS011;62818;49.394;8.686;2023-12-22T03:38:56;5.63;;;2.83;;
60098;SDS011;62818;49.394;8.686;2023-12-22T03:39:57;5.27;;;2.10;;
60098;SDS011;62818;49.394;8.686;2023-12-22T03:40:57;6.97;;;2.43;;
60098;SDS011;62818;49.394;8.686;2023-12-22T03:41:57;5.77;;;2.30;;
60098;SDS011;62818;49.394;8.686;2023-12-22T03:42:59;4.72;;;2.15;;
60098;SDS011;62818;49.394;8.686;2023-12-22T03:43:59;4.70;;;2.30;;
60098;SDS011;62818;49.394;8.686;2023-12-22T03:45:00;4.80;;;2.23;;
60098;SDS011;62818;49.394;8.686;2023-12-22T03:46:00;5.87;;;2.47;;
60098;SDS011;62818;49.394;8.686;2023-12-22T03:47:01;4.87;;;2.27;;
60098;SDS011;62818;49.394;8.686;2023-12-22T03:48:02;6.37;;;2.90;;
60098;SDS011;62818;49.394;8.686;2023-12-22T03:49:02;7.40;;;2.33;;
60098;SDS011;62818;49.394;8.686;2023-12-22T03:50:03;8.90;;;2.60;;
60098;SDS011;62818;49.394;8.686;2023-12-22T03:51:04;6.88;;;2.40;;
60098;SDS011;62818;49.394;8.686;2023-12-22T03:52:04;3.37;;;2.10;;
60098;SDS011;62818;49.394;8.686;2023-12-22T03:53:05;5.60;;;2.40;;
60098;SDS011;62818;49.394;8.686;2023-12-22T03:54:05;4.70;;;2.33;;
60098;SDS011;62818;49.394;8.686;2023-12-22T03:55:06;7.73;;;2.43;;
60098;SDS011;62818;49.394;8.686;2023-12-22T03:56:07;7.63;;;2.70;;
60098;SDS011;62818;49.394;8.686;2023-12-22T03:57:08;8.88;;;2.92;;
60098;SDS011;62818;49.394;8.686;2023-12-22T03:58:09;6.03;;;3.00;;
60098;SDS011;62818;49.394;8.686;2023-12-22T03:59:10;7.32;;;2.90;;
60098;SDS011;62818;49.394;8.686;2023-12-22T04:00:11;9.17;;;2.53;;
60098;SDS011;62818;49.394;8.686;2023-12-22T04:01:14;5.45;;;2.40;;
60098;SDS011;62818;49.394;8.686;2023-12-22T04:03:15;5.97;;;2.25;;
60098;SDS011;62818;49.394;8.686;2023-12-22T04:04:15;7.30;;;2.77;;
60098;SDS011;62818;49.394;8.686;2023-12-22T04:05:16;9.20;;;2.60;;
60098;SDS011;62818;49.394;8.686;2023-12-22T04:06:16;11.03;;;2.97;;
60098;SDS011;62818;49.394;8.686;2023-12-22T04:07:17;10.33;;;3.47;;
60098;SDS011;62818;49.394;8.686;2023-12-22T04:08:17;8.77;;;3.30;;
60098;SDS011;62818;49.394;8.686;2023-12-22T04:09:20;7.18;;;2.67;;
60098;SDS011;62818;49.394;8.686;2023-12-22T04:10:20;6.70;;;2.47;;
60098;SDS011;62818;49.394;8.686;2023-12-22T04:11:21;5.40;;;2.30;;
60098;SDS011;62818;49.394;8.686;2023-12-22T04:12:21;6.53;;;2.37;;
60098;SDS011;62818;49.394;8.686;2023-12-22T04:13:22;8.87;;;2.30;;
60098;SDS011;62818;49.394;8.686;2023-12-22T04:14:22;14.70;;;3.70;;
60098;SDS011;62818;49.394;8.686;2023-12-22T04:15:23;7.10;;;2.57;;
60098;SDS011;62818;49.394;8.686;2023-12-22T04:16:23;9.57;;;3.27;;
60098;SDS011;62818;49.394;8.686;2023-12-22T04:17:24;11.10;;;3.20;;
60098;SDS011;62818;49.394;8.686;2023-12-22T04:18:25;6.20;;;2.73;;
60098;SDS011;62818;49.394;8.686;2023-12-22T04:19:25;5.97;;;2.30;;
60098;SDS011;62818;49.394;8.686;2023-12-22T04:20:26;9.90;;;2.60;;
60098;SDS011;62818;49.394;8.686;2023-12-22T04:21:27;7.68;;;2.60;;
60098;SDS011;62818;49.394;8.686;2023-12-22T04:22:27;3.33;;;1.83;;
60098;SDS011;62818;49.394;8.686;2023-12-22T04:23:28;7.90;;;2.23;;
60098;SDS011;62818;49.394;8.686;2023-12-22T04:24:28;4.47;;;2.00;;
60098;SDS011;62818;49.394;8.686;2023-12-22T04:25:29;6.10;;;2.40;;
60098;SDS011;62818;49.394;8.686;2023-12-22T04:26:29;5.53;;;2.63;;
60098;SDS011;62818;49.394;8.686;2023-12-22T04:27:29;4.10;;;1.93;;
60098;SDS011;62818;49.394;8.686;2023-12-22T04:28:30;5.07;;;2.00;;
60098;SDS011;62818;49.394;8.686;2023-12-22T04:29:30;5.50;;;2.10;;
60098;SDS011;62818;49.394;8.686;2023-12-22T04:30:31;5.85;;;2.22;;
60098;SDS011;62818;49.394;8.686;2023-12-22T04:31:32;40.43;;;4.40;;
60098;SDS011;62818;49.394;8.686;2023-12-22T04:32:32;6.17;;;2.23;;
60098;SDS011;62818;49.394;8.686;2023-12-22T04:33:33;6.67;;;2.30;;
60098;SDS011;62818;49.394;8.686;2023-12-22T04:34:33;4.87;;;2.20;;
60098;SDS011;62818;49.394;8.686;2023-12-22T04:35:34;6.13;;;2.50;;
60098;SDS011;62818;49.394;8.686;2023-12-22T04:36:34;6.67;;;2.53;;
60098;SDS011;62818;49.394;8.686;2023-12-22T04:37:35;5.57;;;2.22;;
60098;SDS011;62818;49.394;8.686;2023-12-22T04:38:36;7.90;;;2.53;;
60098;SDS011;62818;49.394;8.686;2023-12-22T04:39:37;8.43;;;2.33;;
60098;SDS011;62818;49.394;8.686;2023-12-22T04:40:37;3.73;;;2.13;;
60098;SDS011;62818;49.394;8.686;2023-12-22T04:41:38;5.67;;;2.13;;
60098;SDS011;62818;49.394;8.686;2023-12-22T04:42:38;7.00;;;2.60;;
60098;SDS011;62818;49.394;8.686;2023-12-22T04:43:39;4.73;;;2.10;;
60098;SDS011;62818;49.394;8.686;2023-12-22T04:44:39;5.53;;;2.30;;
60098;SDS011;62818;49.394;8.686;2023-12-22T04:45:40;6.60;;;2.40;;
60098;SDS011;62818;49.394;8.686;2023-12-22T04:46:40;10.50;;;2.63;;
60098;SDS011;62818;49.394;8.686;2023-12-22T04:47:41;8.43;;;2.60;;
60098;SDS011;62818;49.394;8.686;2023-12-22T04:48:41;7.27;;;2.70;;
60098;SDS011;62818;49.394;8.686;2023-12-22T04:49:42;7.13;;;2.10;;
60098;SDS011;62818;49.394;8.686;2023-12-22T04:50:42;5.80;;;2.17;;
60098;SDS011;62818;49.394;8.686;2023-12-22T04:51:43;8.93;;;2.67;;
60098;SDS011;62818;49.394;8.686;2023-12-22T04:52:43;8.70;;;3.40;;
60098;SDS011;62818;49.394;8.686;2023-12-22T04:53:44;7.27;;;2.40;;
60098;SDS011;62818;49.394;8.686;2023-12-22T04:54:44;8.70;;;2.73;;
60098;SDS011;62818;49.394;8.686;2023-12-22T04:55:45;5.10;;;2.30;;
60098;SDS011;62818;49.394;8.686;2023-12-22T04:56:45;7.43;;;2.60;;
60098;SDS011;62818;49.394;8.686;2023-12-22T04:57:45;11.40;;;2.50;;
60098;SDS011;62818;49.394;8.686;2023-12-22T04:58:46;7.00;;;2.97;;
60098;SDS011;62818;49.394;8.686;2023-12-22T04:59:46;7.50;;;2.40;;
60098;SDS011;62818;49.394;8.686;2023-12-22T05:00:47;6.00;;;2.37;;
60098;SDS011;62818;49.394;8.686;2023-12-22T05:01:48;4.70;;;1.97;;
60098;SDS011;62818;49.394;8.686;2023-12-22T05:02:48;8.47;;;2.60;;
60098;SDS011;62818;49.394;8.686;2023-12-22T05:03:49;8.10;;;2.33;;
60098;SDS011;62818;49.394;8.686;2023-12-22T05:04:49;12.90;;;3.27;;
60098;SDS011;62818;49.394;8.686;2023-12-22T05:05:50;7.32;;;2.22;;
60098;SDS011;62818;49.394;8.686;2023-12-22T05:06:50;11.00;;;2.77;;
60098;SDS011;62818;49.394;8.686;2023-12-22T05:07:51;8.83;;;2.40;;
60098;SDS011;62818;49.394;8.686;2023-12-22T05:08:51;5.53;;;3.10;;
60098;SDS011;62818;49.394;8.686;2023-12-22T05:09:52;8.97;;;2.83;;
60098;SDS011;62818;49.394;8.686;2023-12-22T05:10:54;5.03;;;2.20;;
60098;SDS011;62818;49.394;8.686;2023-12-22T05:11:54;9.20;;;2.50;;
60098;SDS011;62818;49.394;8.686;2023-12-22T05:12:55;7.23;;;2.53;;
60098;SDS011;62818;49.394;8.686;2023-12-22T05:13:56;5.50;;;2.30;;
60098;SDS011;62818;49.394;8.686;2023-12-22T05:14:56;10.10;;;2.27;;
60098;SDS011;62818;49.394;8.686;2023-12-22T05:15:57;5.60;;;2.37;;
60098;SDS011;62818;49.394;8.686;2023-12-22T05:16:57;5.47;;;2.30;;
60098;SDS011;62818;49.394;8.686;2023-12-22T05:17:57;7.80;;;2.47;;
60098;SDS011;62818;49.394;8.686;2023-12-22T05:18:58;5.37;;;2.20;;
60098;SDS011;62818;49.394;8.686;2023-12-22T05:19:59;5.73;;;2.50;;
60098;SDS011;62818;49.394;8.686;2023-12-22T05:20:59;6.50;;;2.70;;
60098;SDS011;62818;49.394;8.686;2023-12-22T05:22:00;6.77;;;2.47;;
60098;SDS011;62818;49.394;8.686;2023-12-22T05:23:00;5.90;;;2.53;;
60098;SDS011;62818;49.394;8.686;2023-12-22T05:24:00;5.47;;;2.23;;
60098;SDS011;62818;49.394;8.686;2023-12-22T05:26:03;3.75;;;2.00;;
60098;SDS011;62818;49.394;8.686;2023-12-22T05:27:04;7.70;;;2.23;;
60098;SDS011;62818;49.394;8.686;2023-12-22T05:28:04;5.30;;;2.47;;
60098;SDS011;62818;49.394;8.686;2023-12-22T05:29:05;6.03;;;2.60;;
60098;SDS011;62818;49.394;8.686;2023-12-22T05:30:08;6.13;;;2.50;;
60098;SDS011;62818;49.394;8.686;2023-12-22T05:31:09;5.90;;;2.38;;
60098;SDS011;62818;49.394;8.686;2023-12-22T05:32:09;7.37;;;2.60;;
60098;SDS011;62818;49.394;8.686;2023-12-22T05:33:10;7.33;;;2.33;;
60098;SDS011;62818;49.394;8.686;2023-12-22T05:34:11;6.60;;;2.63;;
60098;SDS011;62818;49.394;8.686;2023-12-22T05:35:11;6.33;;;1.97;;
60098;SDS011;62818;49.394;8.686;2023-12-22T05:36:12;8.17;;;2.13;;
60098;SDS011;62818;49.394;8.686;2023-12-22T05:37:12;4.43;;;2.53;;
60098;SDS011;62818;49.394;8.686;2023-12-22T05:38:13;7.90;;;2.63;;
60098;SDS011;62818;49.394;8.686;2023-12-22T05:39:13;6.63;;;2.47;;
60098;SDS011;62818;49.394;8.686;2023-12-22T05:40:15;4.50;;;2.10;;
60098;SDS011;62818;49.394;8.686;2023-12-22T05:42:16;5.90;;;2.05;;
60098;SDS011;62818;49.394;8.686;2023-12-22T05:43:17;5.10;;;2.63;;
60098;SDS011;62818;49.394;8.686;2023-12-22T05:44:17;6.93;;;2.17;;
60098;SDS011;62818;49.394;8.686;2023-12-22T05:45:18;6.30;;;2.10;;
60098;SDS011;62818;49.394;8.686;2023-12-22T05:46:18;5.93;;;2.43;;
60098;SDS011;62818;49.394;8.686;2023-12-22T05:47:19;11.70;;;2.90;;
60098;SDS011;62818;49.394;8.686;2023-12-22T05:48:19;7.60;;;2.77;;
60098;SDS011;62818;49.394;8.686;2023-12-22T05:49:21;9.82;;;2.88;;
60098;SDS011;62818;49.394;8.686;2023-12-22T05:50:23;7.97;;;2.50;;
60098;SDS011;62818;49.394;8.686;2023-12-22T05:51:24;6.33;;;2.70;;
60098;SDS011;62818;49.394;8.686;2023-12-22T05:52:24;10.00;;;3.30;;
60098;SDS011;62818;49.394;8.686;2023-12-22T05:53:25;7.60;;;2.70;;
60098;SDS011;62818;49.394;8.686;2023-12-22T05:54:25;9.47;;;2.73;;
60098;SDS011;62818;49.394;8.686;2023-12-22T05:55:26;8.23;;;2.77;;
60098;SDS011;62818;49.394;8.686;2023-12-22T05:56:26;8.73;;;2.63;;
60098;SDS011;62818;49.394;8.686;2023-12-22T05:57:27;7.37;;;2.83;;
60098;SDS011;62818;49.394;8.686;2023-12-22T05:58:27;7.70;;;2.57;;
60098;SDS011;62818;49.394;8.686;2023-12-22T05:59:28;8.77;;;2.73;;
60098;SDS011;62818;49.394;8.686;2023-12-22T06:00:29;11.13;;;2.78;;
60098;SDS011;62818;49.394;8.686;2023-12-22T06:01:29;7.37;;;2.73;;
60098;SDS011;62818;49.394;8.686;2023-12-22T06:02:30;12.50;;;3.07;;
60098;SDS011;62818;49.394;8.686;2023-12-22T06:03:30;6.00;;;2.73;;
60098;SDS011;62818;49.394;8.686;2023-12-22T06:04:31;8.53;;;3.07;;
60098;SDS011;62818;49.394;8.686;2023-12-22T06:05:32;9.97;;;3.23;;
60098;SDS011;62818;49.394;8.686;2023-12-22T06:06:32;4.83;;;2.50;;
60098;SDS011;62818;49.394;8.686;2023-12-22T06:07:33;9.60;;;3.00;;
60098;SDS011;62818;49.394;8.686;2023-12-22T06:08:34;8.60;;;2.77;;
60098;SDS011;62818;49.394;8.686;2023-12-22T06:09:34;8.73;;;2.90;;
60098;SDS011;62818;49.394;8.686;2023-12-22T06:10:34;6.67;;;2.73;;
60098;SDS011;62818;49.394;8.686;2023-12-22T06:11:36;5.70;;;2.58;;
60098;SDS011;62818;49.394;8.686;2023-12-22T06:12:36;6.83;;;2.60;;
60098;SDS011;62818;49.394;8.686;2023-12-22T06:13:37;8.40;;;2.43;;
60098;SDS011;62818;49.394;8.686;2023-12-22T06:14:37;9.60;;;2.77;;